createdAt,value
2023-03-05T00:02:13.585Z,101646.47
2023-03-05T00:04:53.456Z,101645.50
2023-03-05T00:07:40.588Z,101642.19
2023-03-05T00:10:27.435Z,101649.00
2023-03-05T00:13:08.121Z,101655.56
2023-03-05T00:15:54.442Z,101651.81
2023-03-05T00:18:38.548Z,101639.94
2023-03-05T00:21:37.389Z,101644.13
2023-03-05T00:24:23.540Z,101651.41
2023-03-05T00:27:10.433Z,101639.81
2023-03-05T00:29:51.552Z,101644.97
2023-03-05T00:32:38.469Z,101634.38
2023-03-05T00:35:19.494Z,101634.38
2023-03-05T00:38:06.475Z,101635.09
2023-03-05T00:40:47.494Z,101639.53
2023-03-05T00:43:35.432Z,101636.19
2023-03-05T00:46:15.532Z,101644.53
2023-03-05T00:49:03.359Z,101649.56
2023-03-05T00:51:43.517Z,101655.69
2023-03-05T00:54:30.348Z,101649.50
2023-03-05T00:57:10.571Z,101644.22
2023-03-05T00:59:57.411Z,101648.50
2023-03-05T01:02:37.439Z,101646.31
2023-03-05T01:05:24.428Z,101645.81
2023-03-05T01:08:18.359Z,101646.06
2023-03-05T01:11:05.360Z,101633.53
2023-03-05T01:13:45.522Z,101643.47
2023-03-05T01:16:32.413Z,101634.25
2023-03-05T01:19:12.451Z,101631.03
2023-03-05T01:21:59.363Z,101624.56
2023-03-05T01:24:39.463Z,101621.66
2023-03-05T01:27:26.333Z,101615.06
2023-03-05T01:30:07.854Z,101614.47
2023-03-05T01:32:54.323Z,101604.16
2023-03-05T01:35:34.508Z,101610.75
2023-03-05T01:38:21.372Z,101611.47
2023-03-05T01:41:01.415Z,101601.91
2023-03-05T01:43:49.352Z,101608.91
2023-03-05T01:46:35.563Z,101606.00
2023-03-05T01:49:29.386Z,101604.78
2023-03-05T01:52:18.106Z,101607.13
2023-03-05T01:55:16.366Z,101601.03
2023-03-05T01:58:09.431Z,101591.44
2023-03-05T02:00:59.354Z,101583.13
2023-03-05T02:03:41.510Z,101577.00
2023-03-05T02:06:29.361Z,101576.00
2023-03-05T02:09:24.329Z,101576.25
2023-03-05T02:12:11.367Z,101566.94
2023-03-05T02:14:59.256Z,101558.03
2023-03-05T02:17:46.328Z,101552.16
2023-03-05T02:20:30.402Z,101554.25
2023-03-05T02:23:33.404Z,101548.97
2023-03-05T02:26:18.389Z,101535.00
2023-03-05T02:29:09.367Z,101533.72
2023-03-05T02:31:50.432Z,101536.78
2023-03-05T02:34:37.358Z,101530.81
2023-03-05T02:37:17.441Z,101523.69
2023-03-05T02:40:05.325Z,101523.16
2023-03-05T02:42:46.824Z,101526.88
2023-03-05T02:45:33.344Z,101516.94
2023-03-05T02:48:13.422Z,101512.19
2023-03-05T02:51:00.317Z,101512.91
2023-03-05T02:53:41.688Z,101511.88
2023-03-05T02:56:29.309Z,101508.00
2023-03-05T02:59:09.389Z,101510.13
2023-03-05T03:01:56.323Z,101509.16
2023-03-05T03:04:36.377Z,101510.13
2023-03-05T03:07:23.326Z,101503.22
2023-03-05T03:10:11.417Z,101509.72
2023-03-05T03:12:52.308Z,101506.19
2023-03-05T03:15:40.417Z,101504.97
2023-03-05T03:18:20.308Z,101502.22
2023-03-05T03:21:07.451Z,101502.94
2023-03-05T03:23:47.314Z,101499.31
2023-03-05T03:26:34.392Z,101492.41
2023-03-05T03:29:14.317Z,101494.09
2023-03-05T03:32:01.387Z,101488.28
2023-03-05T03:34:41.313Z,101487.78
2023-03-05T03:37:28.378Z,101489.19
2023-03-05T03:40:08.361Z,101481.31
2023-03-05T03:42:55.369Z,101484.00
2023-03-05T03:45:35.288Z,101479.66
2023-03-05T03:48:22.362Z,101471.81
2023-03-05T03:51:02.296Z,101477.09
2023-03-05T03:53:49.395Z,101478.66
2023-03-05T03:56:29.287Z,101487.00
2023-03-05T03:59:16.385Z,101480.81
2023-03-05T04:01:56.271Z,101483.22
2023-03-05T04:04:43.352Z,101475.06
2023-03-05T04:07:23.288Z,101481.34
2023-03-05T04:10:10.362Z,101475.94
2023-03-05T04:12:50.296Z,101488.75
2023-03-05T04:15:37.374Z,101487.72
2023-03-05T04:18:18.326Z,101492.53
2023-03-05T04:21:05.610Z,101494.34
2023-03-05T04:23:46.270Z,101489.56
2023-03-05T04:26:33.367Z,101489.34
2023-03-05T04:29:13.252Z,101482.25
2023-03-05T04:32:00.415Z,101489.34
2023-03-05T04:34:42.246Z,101483.81
2023-03-05T04:37:29.378Z,101488.13
2023-03-05T04:40:10.301Z,101493.56
2023-03-05T04:42:57.349Z,101483.47
2023-03-05T04:45:38.244Z,101477.91
2023-03-05T04:48:25.380Z,101475.16
2023-03-05T04:51:05.266Z,101472.78
2023-03-05T04:53:52.353Z,101474.44
2023-03-05T04:56:32.233Z,101469.59
2023-03-05T04:59:19.360Z,101476.88
2023-03-05T05:01:59.258Z,101472.56
2023-03-05T05:04:46.548Z,101470.97
2023-03-05T05:07:26.236Z,101471.09
2023-03-05T05:10:21.219Z,101471.84
2023-03-05T05:12:48.187Z,101472.03
2023-03-05T05:15:15.031Z,101473.53
2023-03-05T05:17:41.823Z,101479.66
2023-03-05T05:20:11.548Z,101476.09
2023-03-05T05:22:38.555Z,101471.22
2023-03-05T05:25:05.790Z,101479.84
2023-03-05T05:27:32.642Z,101470.53
2023-03-05T05:29:59.531Z,101473.47
2023-03-05T05:32:26.612Z,101477.84
2023-03-05T05:34:58.191Z,101474.13
2023-03-05T05:37:26.055Z,101475.09
2023-03-05T05:39:52.809Z,101474.00
2023-03-05T05:42:22.297Z,101487.75
2023-03-05T05:44:49.828Z,101480.72
2023-03-05T05:47:17.435Z,101473.78
2023-03-05T05:49:44.349Z,101477.38
2023-03-05T05:52:11.530Z,101466.69
2023-03-05T05:54:38.961Z,101468.47
2023-03-05T05:57:06.668Z,101470.59
2023-03-05T05:59:33.733Z,101459.16
2023-03-05T06:02:00.585Z,101471.09
2023-03-05T06:04:27.463Z,101472.75
2023-03-05T06:06:54.203Z,101471.19
2023-03-05T06:09:21.239Z,101466.63
2023-03-05T06:11:48.013Z,101476.13
2023-03-05T06:14:16.065Z,101478.63
2023-03-05T06:16:42.990Z,101481.06
2023-03-05T06:19:13.957Z,101483.00
2023-03-05T06:21:41.242Z,101477.25
2023-03-05T06:24:08.168Z,101471.34
2023-03-05T06:26:35.136Z,101464.13
2023-03-05T06:29:01.977Z,101469.16
2023-03-05T06:31:29.673Z,101472.97
2023-03-05T06:34:01.346Z,101476.19
2023-03-05T06:36:29.073Z,101474.16
2023-03-05T06:38:56.876Z,101468.09
2023-03-05T06:41:26.894Z,101471.09
2023-03-05T06:43:53.935Z,101470.84
2023-03-05T06:46:26.702Z,101467.47
2023-03-05T06:48:56.250Z,101469.16
2023-03-05T06:51:28.910Z,101465.81
2023-03-05T06:53:59.263Z,101460.50
2023-03-05T06:56:26.185Z,101462.50
2023-03-05T06:58:53.330Z,101466.31
2023-03-05T07:01:20.808Z,101461.00
2023-03-05T07:03:52.434Z,101466.47
2023-03-05T07:06:20.115Z,101462.06
2023-03-05T07:08:47.393Z,101461.94
2023-03-05T07:11:17.046Z,101463.69
2023-03-05T07:13:44.579Z,101471.00
2023-03-05T07:16:19.145Z,101471.97
2023-03-05T07:18:46.635Z,101474.03
2023-03-05T07:21:17.864Z,101479.97
2023-03-05T07:23:44.699Z,101485.22
2023-03-05T07:26:11.880Z,101476.63
2023-03-05T07:28:38.891Z,101479.88
2023-03-05T07:31:08.549Z,101483.94
2023-03-05T07:33:37.201Z,101479.81
2023-03-05T07:36:07.315Z,101488.56
2023-03-05T07:38:34.264Z,101484.06
2023-03-05T07:41:06.253Z,101480.34
2023-03-05T07:43:33.004Z,101485.78
2023-03-05T07:45:59.950Z,101473.91
2023-03-05T07:48:26.982Z,101469.63
2023-03-05T07:51:01.753Z,101475.78
2023-03-05T07:53:28.604Z,101473.66
2023-03-05T07:55:55.345Z,101478.16
2023-03-05T07:58:22.128Z,101473.97
2023-03-05T08:00:49.195Z,101474.41
2023-03-05T08:03:15.975Z,101476.13
2023-03-05T08:05:43.071Z,101473.81
2023-03-05T08:08:09.887Z,101475.91
2023-03-05T08:10:37.869Z,101473.00
2023-03-05T08:13:05.804Z,101464.91
2023-03-05T08:15:32.635Z,101470.50
2023-03-05T08:18:00.232Z,101478.56
2023-03-05T08:20:27.089Z,101470.31
2023-03-05T08:22:53.903Z,101473.63
2023-03-05T08:25:21.077Z,101476.81
2023-03-05T08:27:48.911Z,101477.66
2023-03-05T08:30:20.311Z,101471.09
2023-03-05T08:32:49.158Z,101472.69
2023-03-05T08:35:15.886Z,101470.13
2023-03-05T08:37:42.896Z,101471.19
2023-03-05T08:40:10.752Z,101459.25
2023-03-05T08:42:37.527Z,101451.03
2023-03-05T08:45:04.529Z,101456.84
2023-03-05T08:47:31.319Z,101455.06
2023-03-05T08:49:58.483Z,101448.38
2023-03-05T08:52:27.314Z,101450.44
2023-03-05T08:54:54.198Z,101455.53
2023-03-05T08:57:20.998Z,101464.59
2023-03-05T08:59:47.940Z,101451.81
2023-03-05T09:02:14.758Z,101446.13
2023-03-05T09:04:41.548Z,101450.97
2023-03-05T09:07:08.874Z,101444.59
2023-03-05T09:09:36.510Z,101447.94
2023-03-05T09:12:03.475Z,101435.69
2023-03-05T09:14:30.551Z,101431.91
2023-03-05T09:16:58.111Z,101432.09
2023-03-05T09:19:25.108Z,101423.25
2023-03-05T09:21:51.963Z,101427.91
2023-03-05T09:24:18.767Z,101423.59
2023-03-05T09:26:45.542Z,101422.25
2023-03-05T09:29:12.536Z,101417.59
2023-03-05T09:31:39.632Z,101414.91
2023-03-05T09:34:07.350Z,101420.38
2023-03-05T09:36:34.590Z,101416.06
2023-03-05T09:39:01.388Z,101407.38
2023-03-05T09:41:31.209Z,101403.72
2023-03-05T09:44:28.514Z,101399.03
2023-03-05T09:47:14.774Z,101392.66
2023-03-05T09:50:20.381Z,101380.09
2023-03-05T09:52:54.861Z,101373.72
2023-03-05T09:55:32.105Z,101368.50
2023-03-05T09:58:06.024Z,101359.97
2023-03-05T10:00:45.839Z,101360.69
2023-03-05T10:03:28.279Z,101359.81
2023-03-05T10:06:13.507Z,101354.72
2023-03-05T10:08:58.631Z,101350.63
2023-03-05T10:11:38.260Z,101350.38
2023-03-05T10:14:05.529Z,101340.63
2023-03-05T10:17:06.351Z,101342.88
2023-03-05T10:19:54.080Z,101332.00
2023-03-05T10:22:39.743Z,101338.16
2023-03-05T10:25:52.483Z,101327.97
2023-03-05T10:28:28.111Z,101321.97
2023-03-05T10:31:25.815Z,101313.88
2023-03-05T10:34:16.397Z,101318.47
2023-03-05T10:37:04.675Z,101308.72
2023-03-05T10:39:46.309Z,101298.50
2023-03-05T10:42:39.251Z,101297.84
2023-03-05T10:45:17.169Z,101293.69
2023-03-05T10:47:59.572Z,101293.34
2023-03-05T10:50:29.118Z,101286.31
2023-03-05T10:53:34.420Z,101270.19
2023-03-05T10:56:04.024Z,101281.22
2023-03-05T10:58:31.323Z,101278.03
2023-03-05T11:01:22.096Z,101268.72
2023-03-05T11:03:56.853Z,101272.28
2023-03-05T11:06:41.983Z,101265.59
2023-03-05T11:09:32.567Z,101261.72
2023-03-05T11:12:22.106Z,101257.22
2023-03-05T11:15:09.819Z,101260.03
2023-03-05T11:17:43.247Z,101258.22
2023-03-05T11:20:28.942Z,101255.47
2023-03-05T11:23:18.924Z,101251.59
2023-03-05T11:25:53.310Z,101244.19
2023-03-05T11:28:33.027Z,101239.31
2023-03-05T11:31:23.563Z,101233.84
2023-03-05T11:34:25.655Z,101231.56
2023-03-05T11:36:58.419Z,101220.91
2023-03-05T11:39:26.185Z,101222.88
2023-03-05T11:42:14.441Z,101209.72
2023-03-05T11:44:56.012Z,101211.66
2023-03-05T11:47:45.271Z,101207.16
2023-03-05T11:50:28.413Z,101192.81
2023-03-05T11:53:04.213Z,101195.50
2023-03-05T11:55:35.027Z,101186.03
2023-03-05T11:58:07.824Z,101187.72
2023-03-05T12:00:36.528Z,101173.09
2023-03-05T12:03:11.573Z,101167.72
2023-03-05T12:05:42.627Z,101162.59
2023-03-05T12:08:15.454Z,101159.91
2023-03-05T12:10:42.246Z,101150.00
2023-03-05T12:13:32.074Z,101143.63
2023-03-05T12:16:20.557Z,101138.47
2023-03-05T12:19:00.116Z,101132.09
2023-03-05T12:21:43.266Z,101137.31
2023-03-05T12:24:27.960Z,101137.13
2023-03-05T12:27:04.153Z,101132.84
2023-03-05T12:30:01.530Z,101122.53
2023-03-05T12:32:35.312Z,101118.25
2023-03-05T12:35:06.277Z,101119.09
2023-03-05T12:37:33.008Z,101118.88
2023-03-05T12:40:08.071Z,101110.63
2023-03-05T12:42:35.437Z,101099.56
2023-03-05T12:45:16.984Z,101102.84
2023-03-05T12:47:57.025Z,101099.59
2023-03-05T12:50:29.706Z,101081.84
2023-03-05T12:53:11.472Z,101080.19
2023-03-05T12:55:40.907Z,101070.50
2023-03-05T12:58:24.362Z,101073.59
2023-03-05T13:01:03.047Z,101071.34
2023-03-05T13:03:36.252Z,101065.56
2023-03-05T13:06:06.638Z,101058.78
2023-03-05T13:08:37.876Z,101057.75
2023-03-05T13:11:21.162Z,101048.03
2023-03-05T13:13:48.561Z,101045.56
2023-03-05T13:16:23.240Z,101041.25
2023-03-05T13:18:50.996Z,101034.00
2023-03-05T13:21:20.413Z,101036.91
2023-03-05T13:23:58.611Z,101034.00
2023-03-05T13:26:28.892Z,101021.63
2023-03-05T13:29:10.762Z,101017.06
2023-03-05T13:32:01.093Z,101017.28
2023-03-05T13:34:46.681Z,101013.16
2023-03-05T13:37:19.317Z,101015.41
2023-03-05T13:40:07.078Z,101003.03
2023-03-05T13:42:36.188Z,101009.03
2023-03-05T13:45:20.907Z,101000.38
2023-03-05T13:48:00.433Z,100991.28
2023-03-05T13:50:31.217Z,100992.72
2023-03-05T13:53:28.242Z,100994.78
2023-03-05T13:56:03.731Z,100992.50
2023-03-05T13:58:54.534Z,100991.69
2023-03-05T14:01:27.104Z,100985.09
2023-03-05T14:03:57.312Z,100982.00
2023-03-05T14:06:27.825Z,100983.66
2023-03-05T14:09:06.711Z,100976.84
2023-03-05T14:11:35.463Z,100961.16
2023-03-05T14:14:14.431Z,100963.03
2023-03-05T14:16:41.471Z,100968.00
2023-03-05T14:19:32.802Z,100960.78
2023-03-05T14:21:59.558Z,100956.88
2023-03-05T14:24:28.643Z,100941.41
2023-03-05T14:27:03.314Z,100938.91
2023-03-05T14:29:30.176Z,100937.88
2023-03-05T14:32:08.709Z,100932.31
2023-03-05T14:34:38.165Z,100932.13
2023-03-05T14:37:36.908Z,100918.31
2023-03-05T14:40:12.714Z,100923.03
2023-03-05T14:42:58.926Z,100916.03
2023-03-05T14:45:32.100Z,100917.06
2023-03-05T14:48:00.726Z,100919.13
2023-03-05T14:50:34.533Z,100917.88
2023-03-05T14:53:19.903Z,100930.63
2023-03-05T14:55:50.407Z,100919.53
2023-03-05T14:58:21.707Z,100907.34
2023-03-05T15:00:51.070Z,100912.31
2023-03-05T15:03:20.712Z,100910.44
2023-03-05T15:05:51.083Z,100914.56
2023-03-05T15:08:25.238Z,100909.00
2023-03-05T15:10:52.634Z,100893.72
2023-03-05T15:13:20.618Z,100902.00
2023-03-05T15:15:48.641Z,100902.19
2023-03-05T15:18:18.573Z,100893.13
2023-03-05T15:20:46.315Z,100897.84
2023-03-05T15:23:13.110Z,100894.75
2023-03-05T15:25:40.110Z,100882.19
2023-03-05T15:28:07.675Z,100879.31
2023-03-05T15:30:40.676Z,100880.56
2023-03-05T15:33:13.722Z,100881.16
2023-03-05T15:35:41.388Z,100875.81
2023-03-05T15:38:08.201Z,100867.97
2023-03-05T15:40:35.050Z,100870.66
2023-03-05T15:43:01.805Z,100860.56
2023-03-05T15:45:31.256Z,100859.94
2023-03-05T15:47:58.368Z,100855.81
2023-03-05T15:50:25.176Z,100854.59
2023-03-05T15:52:52.598Z,100844.28
2023-03-05T15:55:19.818Z,100849.03
2023-03-05T15:57:49.188Z,100846.94
2023-03-05T16:00:22.598Z,100841.19
2023-03-05T16:02:50.621Z,100844.69
2023-03-05T16:05:18.540Z,100840.19
2023-03-05T16:07:49.185Z,100836.22
2023-03-05T16:10:21.761Z,100836.44
2023-03-05T16:12:52.196Z,100837.72
2023-03-05T16:15:21.292Z,100818.69
2023-03-05T16:17:54.282Z,100821.19
2023-03-05T16:20:22.145Z,100819.09
2023-03-05T16:22:49.775Z,100812.72
2023-03-05T16:25:16.911Z,100816.41
2023-03-05T16:27:44.000Z,100814.41
2023-03-05T16:30:11.507Z,100814.56
2023-03-05T16:32:38.705Z,100811.69
2023-03-05T16:35:06.197Z,100814.56
2023-03-05T16:37:32.922Z,100816.41
2023-03-05T16:39:59.875Z,100818.50
2023-03-05T16:42:26.762Z,100821.81
2023-03-05T16:44:54.249Z,100817.88
2023-03-05T16:47:21.122Z,100829.00
2023-03-05T16:49:48.015Z,100816.88
2023-03-05T16:52:19.015Z,100822.19
2023-03-05T16:54:47.041Z,100826.31
2023-03-05T16:57:14.087Z,100826.75
2023-03-05T16:59:41.275Z,100826.97
2023-03-05T17:02:08.328Z,100825.09
2023-03-05T17:04:35.894Z,100822.84
2023-03-05T17:07:04.178Z,100829.25
2023-03-05T17:09:31.184Z,100826.13
2023-03-05T17:11:58.020Z,100833.56
2023-03-05T17:14:24.887Z,100841.19
2023-03-05T17:16:51.754Z,100839.50
2023-03-05T17:19:18.830Z,100851.84
2023-03-05T17:21:45.675Z,100843.78
2023-03-05T17:24:12.673Z,100840.25
2023-03-05T17:26:39.504Z,100843.50
2023-03-05T17:29:07.262Z,100838.91
2023-03-05T17:31:34.599Z,100837.47
2023-03-05T17:34:01.490Z,100846.09
2023-03-05T17:36:28.281Z,100848.31
2023-03-05T17:38:55.108Z,100849.72
2023-03-05T17:41:22.977Z,100854.22
2023-03-05T17:43:50.363Z,100842.84
2023-03-05T17:46:17.610Z,100838.91
2023-03-05T17:48:44.665Z,100845.31
2023-03-05T17:51:13.019Z,100846.47
2023-03-05T17:53:40.574Z,100844.22
2023-03-05T17:56:09.440Z,100840.06
2023-03-05T17:58:36.486Z,100838.63
2023-03-05T18:01:04.341Z,100840.84
2023-03-05T18:03:31.252Z,100841.25
2023-03-05T18:05:58.090Z,100832.59
2023-03-05T18:08:24.902Z,100844.72
2023-03-05T18:10:51.675Z,100837.56
2023-03-05T18:13:18.485Z,100835.91
2023-03-05T18:15:47.762Z,100839.97
2023-03-05T18:18:18.473Z,100843.88
2023-03-05T18:20:46.103Z,100846.94
2023-03-05T18:23:13.095Z,100850.19
2023-03-05T18:25:40.441Z,100853.63
2023-03-05T18:28:12.453Z,100853.00
2023-03-05T18:30:40.667Z,100854.22
2023-03-05T18:33:09.290Z,100848.81
2023-03-05T18:35:36.830Z,100853.06
2023-03-05T18:38:03.635Z,100856.31
2023-03-05T18:40:32.705Z,100851.09
2023-03-05T18:43:01.138Z,100854.78
2023-03-05T18:45:29.327Z,100859.75
2023-03-05T18:47:56.782Z,100860.75
2023-03-05T18:50:26.554Z,100854.66
2023-03-05T18:52:53.968Z,100856.13
2023-03-05T18:55:29.414Z,100864.06
2023-03-05T18:57:56.920Z,100856.94
2023-03-05T19:00:29.621Z,100852.25
2023-03-05T19:02:57.108Z,100857.72
2023-03-05T19:05:26.304Z,100858.72
2023-03-05T19:07:53.995Z,100851.56
2023-03-05T19:10:22.675Z,100852.75
2023-03-05T19:12:56.887Z,100853.56
2023-03-05T19:15:23.850Z,100854.22
2023-03-05T19:17:50.688Z,100855.25
2023-03-05T19:20:17.736Z,100853.38
2023-03-05T19:22:44.589Z,100848.69
2023-03-05T19:25:11.468Z,100846.03
2023-03-05T19:27:38.852Z,100842.72
2023-03-05T19:30:06.832Z,100846.22
2023-03-05T19:32:34.193Z,100844.75
2023-03-05T19:35:01.019Z,100843.91
2023-03-05T19:37:27.964Z,100845.75
2023-03-05T19:39:54.815Z,100837.94
2023-03-05T19:42:21.615Z,100844.31
2023-03-05T19:44:48.547Z,100844.31
2023-03-05T19:47:15.366Z,100849.00
2023-03-05T19:49:42.176Z,100839.53
2023-03-05T19:52:09.008Z,100845.06
2023-03-05T19:54:35.780Z,100850.59
2023-03-05T19:57:02.635Z,100845.63
2023-03-05T19:59:29.425Z,100849.06
2023-03-05T20:01:57.524Z,100851.28
2023-03-05T20:04:24.716Z,100847.72
2023-03-05T20:06:51.848Z,100857.09
2023-03-05T20:09:18.750Z,100854.16
2023-03-05T20:11:46.075Z,100846.34
2023-03-05T20:14:16.089Z,100845.91
2023-03-05T20:16:43.444Z,100854.13
2023-03-05T20:19:16.207Z,100850.31
2023-03-05T20:21:43.519Z,100846.66
2023-03-05T20:24:18.647Z,100847.66
2023-03-05T20:26:47.293Z,100849.69
2023-03-05T20:29:17.735Z,100850.28
2023-03-05T20:31:45.647Z,100847.41
2023-03-05T20:34:15.174Z,100835.09
2023-03-05T20:36:42.153Z,100839.72
2023-03-05T20:39:09.531Z,100829.47
2023-03-05T20:41:38.153Z,100837.84
2023-03-05T20:44:06.242Z,100836.09
2023-03-05T20:46:35.912Z,100836.97
2023-03-05T20:49:04.179Z,100828.97
2023-03-05T20:51:35.158Z,100828.31
2023-03-05T20:54:05.387Z,100828.75
2023-03-05T20:56:33.862Z,100831.81
2023-03-05T20:59:03.944Z,100831.34
2023-03-05T21:01:33.099Z,100833.19
2023-03-05T21:04:01.098Z,100834.75
2023-03-05T21:06:30.004Z,100833.09
2023-03-05T21:08:57.249Z,100832.91
2023-03-05T21:11:24.596Z,100833.47
2023-03-05T21:13:51.418Z,100821.69
2023-03-05T21:16:20.904Z,100821.78
2023-03-05T21:18:48.527Z,100825.16
2023-03-05T21:21:15.301Z,100821.28
2023-03-05T21:23:42.145Z,100822.44
2023-03-05T21:26:09.074Z,100816.97
2023-03-05T21:28:36.273Z,100823.16
2023-03-05T21:31:14.579Z,100816.16
2023-03-05T21:33:42.128Z,100818.00
2023-03-05T21:36:09.662Z,100816.16
2023-03-05T21:38:36.381Z,100813.03
2023-03-05T21:41:03.801Z,100812.13
2023-03-05T21:43:31.457Z,100814.59
2023-03-05T21:46:00.176Z,100823.03
2023-03-05T21:48:27.032Z,100825.06
2023-03-05T21:50:55.163Z,100817.41
2023-03-05T21:53:22.359Z,100813.50
2023-03-05T21:56:04.158Z,100810.72
2023-03-05T21:58:35.040Z,100802.88
2023-03-05T22:01:01.916Z,100802.16
2023-03-05T22:03:29.481Z,100805.97
2023-03-05T22:05:56.965Z,100805.72
2023-03-05T22:08:24.863Z,100802.50
2023-03-05T22:10:52.466Z,100799.97
2023-03-05T22:13:20.168Z,100795.81
2023-03-05T22:15:55.850Z,100799.66
2023-03-05T22:18:25.821Z,100797.69
2023-03-05T22:20:53.686Z,100780.47
2023-03-05T22:23:23.149Z,100780.47
2023-03-05T22:25:57.647Z,100790.28
2023-03-05T22:28:24.694Z,100786.13
2023-03-05T22:30:51.638Z,100787.63
2023-03-05T22:33:18.762Z,100785.31
2023-03-05T22:35:46.778Z,100790.97
2023-03-05T22:38:13.956Z,100794.09
2023-03-05T22:40:43.449Z,100794.91
2023-03-05T22:43:11.650Z,100800.00
2023-03-05T22:45:38.429Z,100798.16
2023-03-05T22:48:05.712Z,100790.53
2023-03-05T22:50:32.476Z,100790.72
2023-03-05T22:52:59.342Z,100793.97
2023-03-05T22:55:26.201Z,100774.88
2023-03-05T22:57:53.519Z,100770.69
2023-03-05T23:00:26.814Z,100772.53
2023-03-05T23:02:53.980Z,100780.69
2023-03-05T23:05:21.449Z,100776.34
2023-03-05T23:07:48.920Z,100773.69
2023-03-05T23:10:26.434Z,100772.47
2023-03-05T23:12:55.258Z,100772.34
2023-03-05T23:15:42.242Z,100765.38
2023-03-05T23:18:09.138Z,100762.72
2023-03-05T23:20:37.180Z,100761.91
2023-03-05T23:23:04.423Z,100766.03
2023-03-05T23:25:33.155Z,100758.72
2023-03-05T23:28:00.307Z,100748.94
2023-03-05T23:30:37.333Z,100748.16
2023-03-05T23:33:07.483Z,100748.59
2023-03-05T23:35:36.623Z,100746.84
2023-03-05T23:38:06.254Z,100737.56
2023-03-05T23:40:36.454Z,100738.69
2023-03-05T23:43:04.047Z,100738.09
2023-03-05T23:45:32.670Z,100739.63
2023-03-05T23:48:00.107Z,100734.47
2023-03-05T23:50:30.008Z,100737.31
2023-03-05T23:52:58.070Z,100739.03
2023-03-05T23:55:29.191Z,100741.03
2023-03-05T23:57:56.191Z,100727.41
